Pride — ZDFD7 — position and weather

sailwx.info

Track history (hours):
 
Tides and Currents Weather Stations Pressure Air Temp Water Temp Dewpoint Dewpoint Depression Visibility Wind Speed Wind Dir Waves Ship Positions

Pride

Last reported at 2016-Jul-01 07:17 UTC. Time now 2016-Jul-01 15:24 UTC.
Position N 39°10' W 009°50'.

Length 89 m; draft 5 m.

Type: Cargo ship. MMSI: 236166000.

Date/timePositionNaut miles runAvg speedWind from/ knotsBaromVisibWave heightAir tempDewpointWater temp
2016-Jul-01 07:17N 39°10' W 009°50'15 8.7
2016-Jul-01 05:30N 38°55' W 009°51'8 8.3
2016-Jul-01 04:33N 38°47' W 009°51'8 8.4
2016-Jul-01 03:32N 38°38' W 009°49'8 8.2
2016-Jul-01 02:33N 38°30' W 009°47'10 8.6
2016-Jul-01 01:22N 38°20' W 009°44'12 9.0
2016-Jul-01 00:04N 38°09' W 009°40'5 9.2
2016-Jun-30 23:33N 38°04' W 009°39'12 9.3
2016-Jun-30 22:16N 37°53' W 009°35'41 8.4
2016-Jun-30 17:28N 37°13' W 009°24'7 8.2
2016-Jun-30 16:33N 37°06' W 009°22'8 7.8
2016-Jun-30 15:33N 36°59' W 009°20'195 8.5
2016-Jun-29 16:30N 35°60' W 005°29'6 6.7
2016-Jun-29 15:34N 36°02' W 005°21'222 8.5
2016-Jun-28 13:32N 37°16' W 001°01'9 9.0
2016-Jun-28 12:33N 37°21' W 000°52'9 9.0
2016-Jun-28 11:33N 37°27' W 000°44'9 9.1
2016-Jun-28 10:33N 37°34' W 000°35'9 9.0
2016-Jun-28 09:33N 37°41' W 000°28'21 9.1
2016-Jun-28 07:13N 37°58' W 000°14'  
2016-Jun-25 02:32N 39°44' E 000°41'9 7.9
2016-Jun-25 01:26N 39°46' E 000°52'16 8.5
2016-Jun-24 23:32N 39°56' E 001°08'9 9.0
2016-Jun-24 22:33N 40°02' E 001°18'9 8.8
2016-Jun-24 21:33N 40°07' E 001°27'8 8.4
2016-Jun-24 20:34N 40°12' E 001°35'9 8.5
2016-Jun-24 19:33N 40°17' E 001°44'8 8.4
2016-Jun-24 18:33N 40°23' E 001°52'8 8.2
2016-Jun-24 17:33N 40°28' E 002°01'8 8.3
2016-Jun-24 16:33N 40°33' E 002°09'8 8.3
2016-Jun-24 15:33N 40°39' E 002°17'8 8.0
2016-Jun-24 14:34N 40°44' E 002°25'4 4.2
2016-Jun-24 13:33N 40°47' E 002°29'1 0.9
2016-Jun-24 12:33N 40°46' E 002°29'5 4.7
2016-Jun-24 11:33N 40°43' E 002°25'4 4.5
2016-Jun-24 10:33N 40°39' E 002°21'4 4.4
2016-Jun-24 09:33N 40°36' E 002°17'5 4.6
2016-Jun-24 08:33N 40°32' E 002°13'5 4.6
2016-Jun-24 07:34N 40°29' E 002°09'3 0.9
2016-Jun-24 04:34N 40°31' E 002°11'4 4.0
2016-Jun-24 03:33N 40°34' E 002°14'4 4.2
2016-Jun-24 02:33N 40°38' E 002°18'4 4.4
2016-Jun-24 01:34N 40°41' E 002°22'5 4.6
2016-Jun-24 00:33N 40°44' E 002°26'4 4.5
2016-Jun-23 23:33N 40°48' E 002°29'4 4.4
2016-Jun-23 22:33N 40°51' E 002°33'4 4.3
2016-Jun-23 21:34N 40°54' E 002°37'3 3.1
2016-Jun-23 20:33N 40°52' E 002°34'5 4.8
2016-Jun-23 19:33N 40°49' E 002°30'5 4.8
2016-Jun-23 18:33N 40°45' E 002°26'5 4.8
2016-Jun-23 17:33N 40°41' E 002°22'5 4.6
2016-Jun-23 16:33N 40°37' E 002°18'5 4.7
2016-Jun-23 15:33N 40°34' E 002°14'5 4.9
2016-Jun-23 14:34N 40°30' E 002°10'5 4.9
2016-Jun-23 13:33N 40°26' E 002°06'5 4.8
2016-Jun-23 12:33N 40°23' E 002°02'5 4.8
2016-Jun-23 11:33N 40°19' E 001°58'1 1.4
2016-Jun-23 10:33N 40°20' E 001°59'4 4.5
2016-Jun-23 09:33N 40°23' E 002°03'7 6.6
2016-Jun-23 08:33N 40°29' E 002°08'9 9.1
2016-Jun-23 07:33N 40°36' E 002°15'18 9.1
2016-Jun-23 05:34N 40°50' E 002°30'9 9.1
2016-Jun-23 04:33N 40°57' E 002°38'9 9.1
2016-Jun-23 03:33N 41°04' E 002°45'9 9.1
2016-Jun-23 02:33N 41°12' E 002°53'9 9.1
2016-Jun-23 01:33N 41°19' E 003°00'9 9.1
2016-Jun-23 00:33N 41°26' E 003°07'11 9.4
2016-Jun-22 23:20N 41°36' E 003°16'7 8.8
2016-Jun-22 22:33N 41°40' E 003°22'9 9.0
2016-Jun-22 21:33N 41°47' E 003°30'9 9.0
2016-Jun-22 20:33N 41°54' E 003°38'9 9.0
2016-Jun-22 19:32N 42°01' E 003°46'9 9.0
2016-Jun-22 18:33N 42°09' E 003°53'9 9.3
2016-Jun-22 17:33N 42°16' E 004°00'9 9.4
2016-Jun-22 16:33N 42°23' E 004°08'9 9.1
2016-Jun-22 15:33N 42°30' E 004°16'10 9.2
2016-Jun-22 14:30N 42°38' E 004°24'47 9.1
2016-Jun-22 09:23N 43°17' E 004°59'10 9.2
2016-Jun-22 08:18N 43°26' E 004°52'0 0.2
2016-Jun-22 07:29N 43°26' E 004°52'0 0.0
2016-Jun-22 06:33N 43°26' E 004°52'0 0.0
2016-Jun-22 05:31N 43°26' E 004°52'0 0.0
2016-Jun-22 04:33N 43°26' E 004°52'0 0.0
2016-Jun-22 03:28N 43°26' E 004°52'0 0.0
2016-Jun-22 02:31N 43°26' E 004°52'0 0.0
2016-Jun-22 01:25N 43°26' E 004°52'0 0.0
2016-Jun-22 00:33N 43°26' E 004°52'0 0.0
2016-Jun-21 23:25N 43°26' E 004°52'0 0.0
2016-Jun-21 22:33N 43°26' E 004°52'0 0.0
2016-Jun-21 21:31N 43°26' E 004°52'0 0.0
2016-Jun-21 20:30N 43°26' E 004°52'0 0.0
2016-Jun-21 19:29N 43°26' E 004°52'0 0.0
2016-Jun-21 18:10N 43°26' E 004°52'0 0.0
2016-Jun-21 17:33N 43°26' E 004°52'0 0.0
2016-Jun-21 16:27N 43°26' E 004°52'0 0.0
2016-Jun-21 15:17N 43°26' E 004°52'0 0.0
2016-Jun-21 14:27N 43°26' E 004°52'0 0.0
2016-Jun-21 13:32N 43°26' E 004°52'0 0.0
2016-Jun-21 12:33N 43°26' E 004°52'0 0.0
2016-Jun-21 11:24N 43°26' E 004°52'0 0.0
2016-Jun-21 10:32N 43°26' E 004°52'0 0.0
2016-Jun-21 09:32N 43°26' E 004°52'0 0.0
2016-Jun-21 08:33N 43°26' E 004°52'0 0.0
2016-Jun-21 07:27N 43°26' E 004°52'  
Track history (hours):
 
Tides and Currents Weather Stations Pressure Air Temp Water Temp Dewpoint Dewpoint Depression Visibility Wind Speed Wind Dir Waves Ship Positions

Pride

Last reported at 2016-Jul-01 07:17 UTC. Time now 2016-Jul-01 15:24 UTC.
Position N 39°10' W 009°50'.

Length 89 m; draft 5 m.

Type: Cargo ship. MMSI: 236166000.

Date/timePositionNaut miles runAvg speedWind from/ knotsBaromVisibWave heightAir tempDewpointWater temp
2016-Jul-01 07:17N 39°10' W 009°50'15 8.7
2016-Jul-01 05:30N 38°55' W 009°51'8 8.3
2016-Jul-01 04:33N 38°47' W 009°51'8 8.4
2016-Jul-01 03:32N 38°38' W 009°49'8 8.2
2016-Jul-01 02:33N 38°30' W 009°47'10 8.6
2016-Jul-01 01:22N 38°20' W 009°44'12 9.0
2016-Jul-01 00:04N 38°09' W 009°40'5 9.2
2016-Jun-30 23:33N 38°04' W 009°39'12 9.3
2016-Jun-30 22:16N 37°53' W 009°35'41 8.4
2016-Jun-30 17:28N 37°13' W 009°24'7 8.2
2016-Jun-30 16:33N 37°06' W 009°22'8 7.8
2016-Jun-30 15:33N 36°59' W 009°20'195 8.5
2016-Jun-29 16:30N 35°60' W 005°29'6 6.7
2016-Jun-29 15:34N 36°02' W 005°21'222 8.5
2016-Jun-28 13:32N 37°16' W 001°01'9 9.0
2016-Jun-28 12:33N 37°21' W 000°52'9 9.0
2016-Jun-28 11:33N 37°27' W 000°44'9 9.1
2016-Jun-28 10:33N 37°34' W 000°35'9 9.0
2016-Jun-28 09:33N 37°41' W 000°28'21 9.1
2016-Jun-28 07:13N 37°58' W 000°14'  
2016-Jun-25 02:32N 39°44' E 000°41'9 7.9
2016-Jun-25 01:26N 39°46' E 000°52'16 8.5
2016-Jun-24 23:32N 39°56' E 001°08'9 9.0
2016-Jun-24 22:33N 40°02' E 001°18'9 8.8
2016-Jun-24 21:33N 40°07' E 001°27'8 8.4
2016-Jun-24 20:34N 40°12' E 001°35'9 8.5
2016-Jun-24 19:33N 40°17' E 001°44'8 8.4
2016-Jun-24 18:33N 40°23' E 001°52'8 8.2
2016-Jun-24 17:33N 40°28' E 002°01'8 8.3
2016-Jun-24 16:33N 40°33' E 002°09'8 8.3
2016-Jun-24 15:33N 40°39' E 002°17'8 8.0
2016-Jun-24 14:34N 40°44' E 002°25'4 4.2
2016-Jun-24 13:33N 40°47' E 002°29'1 0.9
2016-Jun-24 12:33N 40°46' E 002°29'5 4.7
2016-Jun-24 11:33N 40°43' E 002°25'4 4.5
2016-Jun-24 10:33N 40°39' E 002°21'4 4.4
2016-Jun-24 09:33N 40°36' E 002°17'5 4.6
2016-Jun-24 08:33N 40°32' E 002°13'5 4.6
2016-Jun-24 07:34N 40°29' E 002°09'3 0.9
2016-Jun-24 04:34N 40°31' E 002°11'4 4.0
2016-Jun-24 03:33N 40°34' E 002°14'4 4.2
2016-Jun-24 02:33N 40°38' E 002°18'4 4.4
2016-Jun-24 01:34N 40°41' E 002°22'5 4.6
2016-Jun-24 00:33N 40°44' E 002°26'4 4.5
2016-Jun-23 23:33N 40°48' E 002°29'4 4.4
2016-Jun-23 22:33N 40°51' E 002°33'4 4.3
2016-Jun-23 21:34N 40°54' E 002°37'3 3.1
2016-Jun-23 20:33N 40°52' E 002°34'5 4.8
2016-Jun-23 19:33N 40°49' E 002°30'5 4.8
2016-Jun-23 18:33N 40°45' E 002°26'5 4.8
2016-Jun-23 17:33N 40°41' E 002°22'5 4.6
2016-Jun-23 16:33N 40°37' E 002°18'5 4.7
2016-Jun-23 15:33N 40°34' E 002°14'5 4.9
2016-Jun-23 14:34N 40°30' E 002°10'5 4.9
2016-Jun-23 13:33N 40°26' E 002°06'5 4.8
2016-Jun-23 12:33N 40°23' E 002°02'5 4.8
2016-Jun-23 11:33N 40°19' E 001°58'1 1.4
2016-Jun-23 10:33N 40°20' E 001°59'4 4.5
2016-Jun-23 09:33N 40°23' E 002°03'7 6.6
2016-Jun-23 08:33N 40°29' E 002°08'9 9.1
2016-Jun-23 07:33N 40°36' E 002°15'18 9.1
2016-Jun-23 05:34N 40°50' E 002°30'9 9.1
2016-Jun-23 04:33N 40°57' E 002°38'9 9.1
2016-Jun-23 03:33N 41°04' E 002°45'9 9.1
2016-Jun-23 02:33N 41°12' E 002°53'9 9.1
2016-Jun-23 01:33N 41°19' E 003°00'9 9.1
2016-Jun-23 00:33N 41°26' E 003°07'11 9.4
2016-Jun-22 23:20N 41°36' E 003°16'7 8.8
2016-Jun-22 22:33N 41°40' E 003°22'9 9.0
2016-Jun-22 21:33N 41°47' E 003°30'9 9.0
2016-Jun-22 20:33N 41°54' E 003°38'9 9.0
2016-Jun-22 19:32N 42°01' E 003°46'9 9.0
2016-Jun-22 18:33N 42°09' E 003°53'9 9.3
2016-Jun-22 17:33N 42°16' E 004°00'9 9.4
2016-Jun-22 16:33N 42°23' E 004°08'9 9.1
2016-Jun-22 15:33N 42°30' E 004°16'10 9.2
2016-Jun-22 14:30N 42°38' E 004°24'47 9.1
2016-Jun-22 09:23N 43°17' E 004°59'10 9.2
2016-Jun-22 08:18N 43°26' E 004°52'0 0.2
2016-Jun-22 07:29N 43°26' E 004°52'0 0.0
2016-Jun-22 06:33N 43°26' E 004°52'0 0.0
2016-Jun-22 05:31N 43°26' E 004°52'0 0.0
2016-Jun-22 04:33N 43°26' E 004°52'0 0.0
2016-Jun-22 03:28N 43°26' E 004°52'0 0.0
2016-Jun-22 02:31N 43°26' E 004°52'0 0.0
2016-Jun-22 01:25N 43°26' E 004°52'0 0.0
2016-Jun-22 00:33N 43°26' E 004°52'0 0.0
2016-Jun-21 23:25N 43°26' E 004°52'0 0.0
2016-Jun-21 22:33N 43°26' E 004°52'0 0.0
2016-Jun-21 21:31N 43°26' E 004°52'0 0.0
2016-Jun-21 20:30N 43°26' E 004°52'0 0.0
2016-Jun-21 19:29N 43°26' E 004°52'0 0.0
2016-Jun-21 18:10N 43°26' E 004°52'0 0.0
2016-Jun-21 17:33N 43°26' E 004°52'0 0.0
2016-Jun-21 16:27N 43°26' E 004°52'0 0.0
2016-Jun-21 15:17N 43°26' E 004°52'0 0.0
2016-Jun-21 14:27N 43°26' E 004°52'0 0.0
2016-Jun-21 13:32N 43°26' E 004°52'0 0.0
2016-Jun-21 12:33N 43°26' E 004°52'0 0.0
2016-Jun-21 11:24N 43°26' E 004°52'0 0.0
2016-Jun-21 10:32N 43°26' E 004°52'0 0.0
2016-Jun-21 09:32N 43°26' E 004°52'0 0.0
2016-Jun-21 08:33N 43°26' E 004°52'0 0.0
2016-Jun-21 07:27N 43°26' E 004°52'  

Dump ship's entire track history